Forside
METAR-TAF:

METAR-TAF

Lufthavne :

Izumo, Japan

Breddekreds: 35-25N, længdekreds: 132-54E, højde: 2 m

Aktuelle vejr

Denne rapport blev lavet for 6 timer og 50 minutter siden, kl. 11:00 UTC
Vind 7 kt fra sydsydvest
Temperatur 12°C
Fugtighed 71%
Tryk 1018 hPa
Sigt 10 km eller mere
ingen skyer under 1500m og ingen cumulonimbus

METAR: RJOC 031100Z 21007KT CAVOK 12/07 Q1018

Tid: 02:50 (17:50 UTC)

Vejrudsigter

Denne rapport blev lavet for 45 minutter siden, kl. 17:05 UTC
Foreløbig gælder fra 03 på 18 UTC til 05 på 00 UTC
Vind 7 kt fra syd
Sigt 10 km eller mere
Nogle få skyer i en højde af 1500 ft
ændring
fra 03 på 23 UTC til 04 på 01 UTC
Vind 18 kt fra vestsydvest
Midlertidig
fra 04 på 01 UTC til 04 på 06 UTC
Vind 20 kt fra vestsydvest med vindstød på up til 30 kt
ændring
fra 04 på 06 UTC til 04 på 09 UTC
Vind 10 kt fra nord
ændring
fra 04 på 18 UTC til 04 på 21 UTC
Vind 8 kt fra nordvest

TAF: RJOC 031705Z 0318/0500 18007KT 9999 FEW015 BECMG 0323/0401 25018KT TEMPO 0401/0406 25020G30KT BECMG 0406/0409 01010KT BECMG 0418/0421 31008KT

Vejrobservationer og prognoser fra mere end 4000 lufthavne (METAR og TAF).

De gule og røde prikker repræsenterer de meteorologiske stationer.

Flyt musen over at se navnet på stationen.

Så klik over at se vejr observationer og prognoser.

At skifte det kort: Klik på de grønne knapper med et sort kors for at zoome ind; på den grønne knap med en bindestreg for at zoome ud; eller på de grønne pile for tilstødende kort.


METAR-TAF: